Time;durP1;ratioP1;P1;durP2;ratioP2;P2;SDS_P1;SDS_P2;PMS_P1;PMS_P2;Temp;Humidity;BMP_temperature;BMP_pressure;BME280_temperature;BME280_humidity;BME280_pressure;Samples;Min_cycle;Max_cycle;Signal;HPM_P1;HPM_P2
2021/07/22 00:02:13;;;;;;;15.07;7.05;;;;;;;27.88;49.98;101198.53;5012291;28;20045;-84
2021/07/22 00:04:38;;;;;;;12.82;7.18;;;;;;;27.82;50.18;101199.28;5010941;28;20076;-84
2021/07/22 00:07:04;;;;;;;10.13;6.72;;;;;;;27.93;50.06;101203.34;5019427;28;20111;-84
2021/07/22 00:09:29;;;;;;;14.48;7.75;;;;;;;27.75;50.53;101198.44;5031731;28;20119;-84
2021/07/22 00:11:54;;;;;;;11.05;6.88;;;;;;;27.92;50.09;101193.56;5031861;28;20017;-84
2021/07/22 00:14:20;;;;;;;14.15;7.65;;;;;;;27.61;50.96;101200.22;5014013;28;20439;-84
2021/07/22 00:16:45;;;;;;;14.00;8.32;;;;;;;27.35;51.49;101193.59;5017866;28;20377;-84
2021/07/22 00:19:12;;;;;;;13.50;7.55;;;;;;;27.62;51.00;101197.28;5031812;28;20017;-84
2021/07/22 00:21:37;;;;;;;15.60;7.70;;;;;;;27.77;50.69;101199.06;5031738;28;20480;-84
2021/07/22 00:24:03;;;;;;;10.75;7.38;;;;;;;27.63;51.02;101195.47;5031818;28;20037;-84
2021/07/22 00:26:28;;;;;;;13.70;7.40;;;;;;;27.64;51.24;101197.94;5031729;28;20017;-84
2021/07/22 00:28:54;;;;;;;16.35;7.97;;;;;;;27.77;50.76;101201.75;5031846;28;20038;-84
2021/07/22 00:31:19;;;;;;;14.68;8.50;;;;;;;27.62;50.98;101188.38;5027459;28;20021;-84
2021/07/22 00:33:44;;;;;;;13.95;7.68;;;;;;;27.67;51.05;101196.72;5022869;28;20512;-84
2021/07/22 00:36:10;;;;;;;13.98;7.60;;;;;;;27.58;51.33;101196.03;5031572;28;20036;-84
2021/07/22 00:38:36;;;;;;;13.38;8.30;;;;;;;27.70;50.87;101194.44;5031578;28;20027;-84
2021/07/22 00:41:01;;;;;;;13.70;7.80;;;;;;;27.67;51.15;101197.56;5031859;28;20028;-83
2021/07/22 00:43:27;;;;;;;16.33;8.27;;;;;;;27.69;51.28;101194.66;5031731;28;20476;-83
2021/07/22 00:45:52;;;;;;;11.55;7.78;;;;;;;27.67;51.12;101194.84;5028807;28;20037;-83
2021/07/22 00:48:17;;;;;;;13.65;7.60;;;;;;;27.67;51.25;101202.13;5012799;28;20040;-84
2021/07/22 00:50:43;;;;;;;9.32;7.32;;;;;;;27.62;51.59;101200.00;5028910;28;20029;-83
2021/07/22 00:53:08;;;;;;;9.93;7.32;;;;;;;27.50;52.02;101202.41;5031272;28;20372;-84
2021/07/22 00:55:34;;;;;;;13.77;7.93;;;;;;;27.39;52.31;101194.03;5031375;28;20467;-84
2021/07/22 00:57:59;;;;;;;11.45;7.63;;;;;;;27.24;52.54;101200.34;5031410;28;20053;-84
2021/07/22 01:00:24;;;;;;;10.73;8.10;;;;;;;27.24;52.90;101203.03;5032991;28;20029;-84
2021/07/22 01:02:50;;;;;;;12.95;8.43;;;;;;;27.14;53.21;101196.31;5024235;28;20468;-84
2021/07/22 01:05:15;;;;;;;15.32;9.00;;;;;;;27.13;53.43;101191.91;5021376;28;20270;-84
2021/07/22 01:07:41;;;;;;;11.27;8.02;;;;;;;26.93;53.83;101200.66;5015489;28;20061;-84
2021/07/22 01:10:08;;;;;;;14.73;8.40;;;;;;;26.80;54.58;101200.56;5015453;28;20057;-84
2021/07/22 01:12:33;;;;;;;12.10;8.55;;;;;;;26.80;54.62;101204.06;5019458;28;20075;-84
2021/07/22 01:14:58;;;;;;;11.25;8.05;;;;;;;26.72;54.87;101198.81;5035101;28;20033;-84
2021/07/22 01:17:47;;;;;;;15.80;7.72;;;;;;;26.65;55.64;101206.81;5035530;28;20078;-84
2021/07/22 01:20:16;;;;;;;10.73;8.57;;;;;;;26.63;55.31;101200.78;5034953;28;20507;-84
2021/07/22 01:22:42;;;;;;;12.48;7.97;;;;;;;26.70;54.99;101206.25;5024533;28;20026;-84
2021/07/22 01:25:08;;;;;;;12.85;8.13;;;;;;;26.67;55.12;101204.75;5015171;28;20022;-84
2021/07/22 01:27:34;;;;;;;11.95;7.97;;;;;;;26.59;55.20;101209.44;5021086;28;20021;-84
2021/07/22 01:29:59;;;;;;;13.68;8.85;;;;;;;26.44;55.84;101199.53;5034840;28;20484;-83
2021/07/22 01:32:24;;;;;;;21.92;8.85;;;;;;;26.45;55.82;101200.34;5034818;28;20061;-83
2021/07/22 01:34:50;;;;;;;13.18;9.27;;;;;;;26.56;55.87;101204.38;5034621;28;20030;-84
2021/07/22 01:37:15;;;;;;;15.02;9.13;;;;;;;26.32;56.48;101203.69;5025745;28;20447;-84
2021/07/22 01:39:40;;;;;;;12.88;9.45;;;;;;;26.20;56.99;101202.53;5013416;28;20097;-84
2021/07/22 01:42:06;;;;;;;13.20;8.95;;;;;;;26.30;56.38;101200.38;5014876;28;20384;-83
2021/07/22 01:44:32;;;;;;;12.77;9.07;;;;;;;26.32;56.82;101203.69;5014683;28;20040;-84
2021/07/22 01:46:58;;;;;;;16.27;9.18;;;;;;;26.26;56.57;101199.06;5014876;28;20022;-83
2021/07/22 01:49:24;;;;;;;11.90;8.70;;;;;;;26.20;57.41;101208.72;5014734;28;20057;-83
2021/07/22 01:51:49;;;;;;;12.05;9.18;;;;;;;26.14;57.54;101206.78;5019179;28;20053;-83
2021/07/22 01:54:14;;;;;;;15.50;9.35;;;;;;;26.16;57.43;101204.75;5014289;28;20110;-83
2021/07/22 01:56:40;;;;;;;13.23;9.25;;;;;;;26.28;56.91;101214.03;5014449;28;20076;-83
2021/07/22 01:59:05;;;;;;;15.90;9.77;;;;;;;25.95;58.19;101215.44;5014463;28;20030;-83
2021/07/22 02:01:30;;;;;;;16.70;9.48;;;;;;;26.14;57.55;101203.28;5019423;28;20090;-83
2021/07/22 02:03:56;;;;;;;20.40;10.00;;;;;;;26.02;58.14;101209.13;5024626;28;20510;-84
2021/07/22 02:06:21;;;;;;;18.00;9.30;;;;;;;26.19;57.28;101209.78;5014393;28;20030;-84
2021/07/22 02:08:46;;;;;;;14.15;9.20;;;;;;;26.23;57.10;101205.69;5014356;28;20025;-83
2021/07/22 02:11:11;;;;;;;17.67;10.10;;;;;;;26.08;57.49;101205.69;5014331;28;20034;-83
2021/07/22 02:13:37;;;;;;;16.20;10.00;;;;;;;25.99;58.23;101204.13;5014266;28;20026;-83
2021/07/22 02:16:06;;;;;;;13.52;9.93;;;;;;;26.18;57.58;101196.50;5014044;28;20053;-84
2021/07/22 02:18:32;;;;;;;16.05;9.52;;;;;;;26.12;57.49;101204.28;5013985;28;20177;-83
2021/07/22 02:20:57;;;;;;;21.38;9.55;;;;;;;25.81;58.61;101204.47;5028754;28;20500;-84
2021/07/22 02:23:22;;;;;;;19.58;9.93;;;;;;;25.82;58.70;101203.44;5033861;28;20029;-84
2021/07/22 02:25:48;;;;;;;15.95;10.52;;;;;;;25.99;57.60;101209.50;5031869;28;20037;-84
2021/07/22 02:28:13;;;;;;;15.57;10.20;;;;;;;26.01;57.75;101212.84;5033800;28;20056;-84
2021/07/22 02:30:38;;;;;;;15.20;10.30;;;;;;;26.01;57.79;101215.53;5033755;28;20387;-84
2021/07/22 02:33:04;;;;;;;14.70;9.63;;;;;;;26.00;57.82;101213.84;5033604;28;20044;-84
2021/07/22 02:35:29;;;;;;;16.25;10.07;;;;;;;26.01;57.90;101215.53;5033830;28;20116;-84
2021/07/22 02:37:54;;;;;;;15.40;9.32;;;;;;;25.94;58.21;101217.28;5033535;28;20076;-84
2021/07/22 02:40:20;;;;;;;13.85;10.00;;;;;;;25.94;58.47;101211.91;5033263;28;20025;-84
2021/07/22 02:42:45;;;;;;;14.32;9.73;;;;;;;25.92;58.10;101220.16;5033431;28;20053;-84
2021/07/22 02:45:10;;;;;;;15.45;11.18;;;;;;;25.86;57.99;101214.66;5033481;28;20083;-84
2021/07/22 02:47:36;;;;;;;14.77;10.55;;;;;;;25.80;58.16;101212.72;5025223;28;20095;-84
2021/07/22 02:50:01;;;;;;;16.95;9.60;;;;;;;25.80;58.40;101213.56;5033284;28;20040;-84
2021/07/22 02:52:27;;;;;;;18.05;9.98;;;;;;;25.73;58.50;101210.78;5033404;28;20031;-84
2021/07/22 02:54:52;;;;;;;15.52;9.68;;;;;;;25.72;58.79;101213.66;5033141;28;20029;-84
2021/07/22 02:57:17;;;;;;;18.15;10.30;;;;;;;25.69;58.72;101204.09;5033275;28;20094;-84
2021/07/22 02:59:43;;;;;;;15.50;10.10;;;;;;;25.63;59.07;101209.34;5033096;28;20425;-84
2021/07/22 03:02:08;;;;;;;21.83;10.77;;;;;;;25.64;59.05;101211.88;5031947;28;20082;-84
2021/07/22 03:04:33;;;;;;;14.68;10.43;;;;;;;25.71;58.38;101212.81;5017833;28;20029;-84
2021/07/22 03:06:59;;;;;;;20.17;11.57;;;;;;;25.56;59.19;101209.28;5031799;28;20029;-84
2021/07/22 03:09:24;;;;;;;17.38;10.68;;;;;;;25.69;58.71;101214.00;5033137;28;20136;-84
2021/07/22 03:11:50;;;;;;;14.77;10.68;;;;;;;25.71;58.45;101212.81;5032847;28;20384;-84
2021/07/22 03:14:15;;;;;;;16.85;11.77;;;;;;;25.67;58.78;101214.19;5032780;28;20049;-84
2021/07/22 03:16:40;;;;;;;18.83;11.63;;;;;;;25.82;57.97;101214.19;5027645;28;20388;-84
2021/07/22 03:19:06;;;;;;;16.10;11.05;;;;;;;25.83;58.40;101215.03;5015448;28;20389;-84
2021/07/22 03:21:31;;;;;;;14.15;9.18;;;;;;;25.76;58.11;101208.72;5026019;28;20483;-83
2021/07/22 03:23:56;;;;;;;12.68;10.95;;;;;;;25.68;58.38;101215.84;5012787;28;20181;-83
2021/07/22 03:26:22;;;;;;;13.55;9.95;;;;;;;25.65;58.77;101218.94;5012847;28;20034;-84
2021/07/22 03:28:47;;;;;;;22.58;10.48;;;;;;;25.63;59.18;101222.81;5012928;28;20037;-84
2021/07/22 03:31:12;;;;;;;15.15;9.30;;;;;;;25.63;58.85;101220.13;5012794;28;20032;-83
2021/07/22 03:33:38;;;;;;;14.25;9.63;;;;;;;25.58;59.07;101222.53;5012802;28;20049;-83
2021/07/22 03:36:04;;;;;;;17.65;11.02;;;;;;;25.46;59.13;101222.97;5016769;28;20138;-83
2021/07/22 03:38:30;;;;;;;14.52;11.15;;;;;;;25.41;59.00;101222.66;5032303;28;20029;-83
2021/07/22 03:40:55;;;;;;;14.00;10.02;;;;;;;25.30;59.54;101226.66;5032402;28;20148;-83
2021/07/22 03:43:20;;;;;;;13.80;9.85;;;;;;;25.23;59.69;101220.31;5032253;28;20021;-83
2021/07/22 03:45:46;;;;;;;18.23;10.65;;;;;;;25.20;60.18;101220.66;5032326;28;20022;-83
2021/07/22 03:48:14;;;;;;;12.88;11.32;;;;;;;25.15;60.21;101223.03;5013916;28;20053;-83
2021/07/22 03:50:39;;;;;;;15.10;10.73;;;;;;;25.08;60.34;101219.38;5015407;28;20037;-84
2021/07/22 03:53:05;;;;;;;15.52;12.25;;;;;;;24.97;60.28;101222.53;5031966;28;20021;-83
2021/07/22 03:55:30;;;;;;;19.90;11.65;;;;;;;24.91;60.75;101218.69;5032118;28;20057;-83
2021/07/22 03:57:56;;;;;;;16.73;11.80;;;;;;;24.94;60.94;101221.00;5032150;28;20033;-83
2021/07/22 04:00:23;;;;;;;17.75;10.77;;;;;;;24.94;60.43;101221.00;5030898;28;20129;-83
2021/07/22 04:02:58;;;;;;;15.13;11.15;;;;;;;25.06;60.50;101219.59;5012125;28;20111;-83
2021/07/22 04:05:24;;;;;;;13.52;11.10;;;;;;;24.92;60.47;101217.66;5012419;28;20076;-84
2021/07/22 04:07:49;;;;;;;20.52;12.38;;;;;;;24.84;60.57;101228.47;5011009;28;20030;-83
2021/07/22 04:10:14;;;;;;;17.92;12.57;;;;;;;24.70;60.84;101227.38;5012189;28;20559;-83
2021/07/22 04:12:39;;;;;;;14.20;10.68;;;;;;;24.77;60.28;101228.34;5012050;28;20045;-83
2021/07/22 04:15:05;;;;;;;17.35;13.05;;;;;;;24.63;60.70;101227.25;5013580;28;20128;-83
2021/07/22 04:17:31;;;;;;;18.40;13.27;;;;;;;24.66;60.62;101228.75;5031671;28;20104;-83
2021/07/22 04:19:56;;;;;;;17.40;12.88;;;;;;;24.64;61.10;101228.09;5022562;28;20037;-83
2021/07/22 04:22:22;;;;;;;21.48;14.07;;;;;;;24.66;60.75;101228.75;5031686;28;20026;-83
2021/07/22 04:24:47;;;;;;;22.73;14.77;;;;;;;24.54;61.01;101231.81;5031674;28;20441;-83
2021/07/22 04:27:12;;;;;;;15.70;13.18;;;;;;;24.50;61.37;101227.81;5031709;28;20057;-83
2021/07/22 04:29:38;;;;;;;22.67;14.02;;;;;;;24.45;61.29;101227.50;5031783;28;20128;-83
2021/07/22 04:32:03;;;;;;;18.85;13.18;;;;;;;24.53;61.39;101224.78;5015231;28;20022;-83
2021/07/22 04:34:29;;;;;;;19.05;14.40;;;;;;;24.51;60.85;101228.69;5033180;28;20056;-83
2021/07/22 04:36:54;;;;;;;20.10;13.60;;;;;;;24.43;61.16;101224.16;5035656;28;20021;-83
2021/07/22 04:39:19;;;;;;;17.60;12.75;;;;;;;24.51;61.11;101218.78;5035862;28;20022;-83
2021/07/22 04:41:45;;;;;;;17.60;12.85;;;;;;;24.47;61.10;101228.16;5035909;28;20431;-83
2021/07/22 04:44:10;;;;;;;17.33;12.68;;;;;;;24.49;61.30;101231.50;5035691;28;20543;-83
2021/07/22 04:46:35;;;;;;;16.83;12.35;;;;;;;24.46;61.02;101234.53;5031691;28;20519;-83
2021/07/22 04:49:01;;;;;;;15.35;12.68;;;;;;;24.47;61.04;101241.56;5032798;28;20037;-83
2021/07/22 04:51:26;;;;;;;17.25;12.35;;;;;;;24.49;61.06;101241.41;5035682;28;20029;-83
2021/07/22 04:53:52;;;;;;;18.40;13.50;;;;;;;24.42;61.13;101238.56;5035458;28;20030;-83
2021/07/22 04:56:17;;;;;;;18.27;12.82;;;;;;;24.46;61.00;101245.25;5023483;28;20034;-83
2021/07/22 04:58:42;;;;;;;17.40;13.40;;;;;;;24.40;61.19;101250.50;5015641;28;20022;-83
2021/07/22 05:01:09;;;;;;;21.02;13.48;;;;;;;24.31;61.21;101245.19;5015980;28;20057;-83
2021/07/22 05:03:34;;;;;;;18.98;13.00;;;;;;;24.40;61.10;101243.28;5015339;28;20030;-83
2021/07/22 05:06:00;;;;;;;19.95;12.18;;;;;;;24.45;61.72;101243.59;5015609;28;20037;-83
2021/07/22 05:08:26;;;;;;;16.40;13.15;;;;;;;24.52;60.90;101249.13;5015599;28;20018;-83
2021/07/22 05:10:51;;;;;;;17.75;13.43;;;;;;;24.06;62.58;101255.16;5024744;28;20498;-83
2021/07/22 05:13:16;;;;;;;16.60;13.32;;;;;;;23.96;63.54;101249.16;5034984;28;20033;-83
2021/07/22 05:15:42;;;;;;;16.13;12.48;;;;;;;23.97;63.66;101247.28;5024713;28;20041;-83
2021/07/22 05:18:07;;;;;;;16.20;11.82;;;;;;;23.95;63.62;101251.00;5028937;28;20033;-83
2021/07/22 05:20:32;;;;;;;13.88;11.38;;;;;;;24.33;61.99;101253.06;5035241;28;20100;-84
2021/07/22 05:23:01;;;;;;;18.23;12.15;;;;;;;24.56;61.90;101253.13;5034981;28;20029;-83
2021/07/22 05:25:26;;;;;;;15.73;10.68;;;;;;;24.50;61.30;101257.34;5033710;28;20031;-83
2021/07/22 05:27:52;;;;;;;14.93;11.70;;;;;;;24.32;60.64;101254.06;5034769;28;20105;-83
2021/07/22 05:30:17;;;;;;;14.50;11.18;;;;;;;24.37;60.91;101249.00;5034914;28;20037;-83
2021/07/22 05:32:42;;;;;;;14.32;10.75;;;;;;;24.48;61.70;101248.59;5034860;28;20022;-83
2021/07/22 05:35:08;;;;;;;13.73;10.38;;;;;;;24.56;61.13;101252.31;5034523;28;20065;-83
2021/07/22 05:37:34;;;;;;;15.68;11.07;;;;;;;24.65;60.95;101254.78;5032918;28;20415;-83
2021/07/22 05:39:59;;;;;;;19.98;10.57;;;;;;;24.69;60.62;101255.25;5034559;28;20139;-83
2021/07/22 05:42:25;;;;;;;11.65;9.73;;;;;;;24.76;60.69;101258.91;5034611;28;20026;-83
2021/07/22 05:44:50;;;;;;;12.48;9.85;;;;;;;24.79;60.89;101266.59;5034060;28;20125;-84
2021/07/22 05:47:15;;;;;;;11.27;9.32;;;;;;;24.80;60.71;101265.59;5034543;28;20029;-83
2021/07/22 05:49:41;;;;;;;17.95;11.07;;;;;;;24.71;60.29;101263.97;5034601;28;20388;-83
2021/07/22 05:52:06;;;;;;;12.32;10.50;;;;;;;24.78;60.74;101264.91;5039378;28;20056;-83
2021/07/22 05:54:31;;;;;;;10.70;8.65;;;;;;;24.89;60.86;101266.38;5054058;28;20029;-83
2021/07/22 05:56:57;;;;;;;11.45;8.70;;;;;;;24.98;61.09;101264.47;5043796;28;20033;-83
2021/07/22 05:59:22;;;;;;;17.67;10.10;;;;;;;25.01;60.15;101264.97;5034119;28;20152;-83
2021/07/22 06:01:47;;;;;;;15.35;9.95;;;;;;;25.14;60.61;101267.06;5034321;28;20030;-84
2021/07/22 06:04:13;;;;;;;13.52;9.20;;;;;;;25.26;60.24;101262.97;5034288;28;20024;-84
2021/07/22 06:06:42;;;;;;;11.65;8.73;;;;;;;25.33;60.45;101271.97;5034169;28;20052;-83
2021/07/22 06:09:08;;;;;;;10.95;8.73;;;;;;;25.39;60.33;101277.66;5034207;28;20025;-83
2021/07/22 06:11:33;;;;;;;18.58;8.60;;;;;;;25.40;60.42;101276.63;5034137;28;20036;-83
2021/07/22 06:13:58;;;;;;;12.90;9.13;;;;;;;25.53;60.19;101280.38;5051191;28;20041;-83
2021/07/22 06:16:24;;;;;;;12.32;9.43;;;;;;;25.64;59.81;101275.59;5029379;28;20039;-83
2021/07/22 06:18:49;;;;;;;12.70;10.43;;;;;;;25.73;59.29;101286.09;5033853;28;20025;-82
2021/07/22 06:21:16;;;;;;;16.13;9.73;;;;;;;25.88;59.53;101277.19;5034024;28;20025;-83
2021/07/22 06:23:43;;;;;;;15.68;11.20;;;;;;;25.92;55.79;101271.28;5035561;28;20061;-83
2021/07/22 06:26:09;;;;;;;15.93;11.90;;;;;;;26.04;54.82;101271.66;5036187;28;20025;-83
2021/07/22 06:28:35;;;;;;;17.48;11.38;;;;;;;26.18;54.29;101275.38;5033615;28;20032;-84
2021/07/22 06:31:00;;;;;;;18.00;10.88;;;;;;;26.38;54.77;101264.88;5033322;28;20108;-85
2021/07/22 06:33:26;;;;;;;16.88;10.90;;;;;;;27.07;52.25;101269.00;5033500;28;20021;-84
2021/07/22 06:35:51;;;;;;;14.73;10.52;;;;;;;27.92;50.12;101267.25;5033012;28;20102;-84
2021/07/22 06:38:17;;;;;;;13.23;10.63;;;;;;;28.65;48.27;101261.41;5033660;28;20024;-84
2021/07/22 06:40:42;;;;;;;15.50;9.73;;;;;;;29.29;46.80;101259.28;5033622;28;20032;-85
2021/07/22 06:43:09;;;;;;;12.82;8.93;;;;;;;29.88;46.95;101263.84;5033376;28;20029;-84
2021/07/22 06:45:36;;;;;;;14.23;7.90;;;;;;;30.50;44.73;101258.03;5020776;28;20383;-84
2021/07/22 06:48:04;;;;;;;12.68;7.93;;;;;;;31.07;43.04;101261.69;5029940;28;20075;-84
2021/07/22 06:50:30;;;;;;;12.90;8.40;;;;;;;31.68;41.53;101256.63;5032777;28;20373;-84
2021/07/22 06:52:55;;;;;;;15.52;8.98;;;;;;;32.28;39.13;101256.81;5032818;28;20048;-85
2021/07/22 06:55:21;;;;;;;10.50;7.20;;;;;;;32.85;38.01;101247.50;5033017;28;20431;-85
2021/07/22 06:57:48;;;;;;;10.70;7.80;;;;;;;33.22;38.70;101252.81;5032786;28;20025;-86
2021/07/22 07:00:14;;;;;;;13.48;7.65;;;;;;;33.65;37.10;101247.06;5031707;28;20037;-85
2021/07/22 07:02:39;;;;;;;8.52;6.50;;;;;;;34.27;36.54;101246.50;5030845;28;20087;-85
2021/07/22 07:05:06;;;;;;;17.10;6.55;;;;;;;34.64;37.06;101248.00;5031440;28;20037;-85
2021/07/22 07:07:31;;;;;;;8.18;6.07;;;;;;;35.32;34.96;101251.69;5032045;28;20040;-86
2021/07/22 07:09:57;;;;;;;12.30;6.75;;;;;;;35.49;34.35;101247.03;5031481;28;20100;-86
2021/07/22 07:12:22;;;;;;;12.82;7.80;;;;;;;35.78;32.06;101248.84;5032696;28;20047;-86
2021/07/22 07:14:47;;;;;;;12.63;6.22;;;;;;;36.43;32.44;101239.00;5033057;28;21005;-86
2021/07/22 07:17:13;;;;;;;9.52;6.13;;;;;;;36.57;32.02;101244.88;5032510;28;20075;-86
2021/07/22 07:19:38;;;;;;;11.73;7.53;;;;;;;36.79;30.50;101244.84;5032585;28;20494;-86
2021/07/22 07:22:03;;;;;;;13.30;7.72;;;;;;;36.92;31.53;101247.16;5032734;28;20057;-86
2021/07/22 07:24:29;;;;;;;13.13;7.78;;;;;;;37.03;31.04;101248.06;5032551;28;20428;-84
2021/07/22 07:26:54;;;;;;;11.55;7.40;;;;;;;37.18;29.88;101248.22;5032736;28;20030;-84
2021/07/22 07:29:20;;;;;;;11.60;6.45;;;;;;;37.35;30.75;101245.34;5031226;28;20492;-84
2021/07/22 07:31:45;;;;;;;15.32;7.50;;;;;;;37.16;30.90;101241.34;5032171;28;20522;-83
2021/07/22 07:34:10;;;;;;;8.27;6.47;;;;;;;37.78;30.40;101248.91;5032137;28;20086;-84
2021/07/22 07:36:41;;;;;;;11.48;6.97;;;;;;;38.03;29.21;101250.91;5032430;28;20079;-84
2021/07/22 07:39:06;;;;;;;12.35;7.00;;;;;;;38.18;29.06;101258.41;5032429;28;20022;-86
2021/07/22 07:41:32;;;;;;;11.77;7.03;;;;;;;38.39;28.83;101251.09;5030657;28;20036;-84
2021/07/22 07:43:57;;;;;;;10.48;5.30;;;;;;;38.71;29.21;101254.72;5023687;28;20026;-83
2021/07/22 07:46:22;;;;;;;12.90;5.97;;;;;;;39.16;27.67;101255.84;5011880;28;20580;-83
2021/07/22 07:48:48;;;;;;;8.48;6.50;;;;;;;39.11;28.07;101253.94;5014171;28;20392;-83
2021/07/22 07:51:15;;;;;;;7.93;6.18;;;;;;;39.16;27.49;101264.94;5015657;28;20042;-83
2021/07/22 07:53:40;;;;;;;11.25;6.30;;;;;;;39.23;27.05;101251.72;5031578;28;20025;-83
2021/07/22 07:56:05;;;;;;;11.68;6.22;;;;;;;39.29;27.41;101260.78;5027429;28;20540;-83
2021/07/22 07:58:31;;;;;;;12.23;6.70;;;;;;;39.21;27.22;101258.63;5011341;28;20025;-83
2021/07/22 08:00:56;;;;;;;11.18;5.68;;;;;;;39.63;27.04;101262.94;5030725;28;20033;-83
2021/07/22 08:03:22;;;;;;;13.55;6.68;;;;;;;39.92;26.92;101265.09;5029859;28;20479;-83
2021/07/22 08:05:48;;;;;;;13.05;6.57;;;;;;;39.94;26.79;101262.91;5030086;28;20080;-83
2021/07/22 08:08:14;;;;;;;9.57;6.55;;;;;;;40.16;26.53;101257.81;5029330;28;20033;-83
2021/07/22 08:10:43;;;;;;;12.02;6.60;;;;;;;39.82;27.18;101263.19;5029368;28;20025;-82
2021/07/22 08:13:10;;;;;;;10.52;5.13;;;;;;;40.17;26.37;101259.50;5031675;28;20030;-84
2021/07/22 08:15:42;;;;;;;8.95;6.22;;;;;;;40.20;26.24;101263.59;5025990;28;20022;-84
2021/07/22 08:18:07;;;;;;;9.18;6.38;;;;;;;40.25;26.32;101253.38;5026838;28;20029;-84
2021/07/22 08:20:33;;;;;;;12.65;6.80;;;;;;;40.53;26.37;101258.50;5011355;28;20026;-83
2021/07/22 08:22:58;;;;;;;9.40;5.78;;;;;;;40.17;26.06;101262.22;5011216;28;20025;-83
2021/07/22 08:25:23;;;;;;;12.23;7.30;;;;;;;40.40;26.34;101251.66;5019403;28;20104;-83
2021/07/22 08:27:49;;;;;;;14.57;6.03;;;;;;;40.85;25.63;101258.00;5029669;28;20447;-83
2021/07/22 08:30:14;;;;;;;10.45;5.72;;;;;;;41.24;26.55;101259.88;5029669;28;20021;-84
2021/07/22 08:32:40;;;;;;;10.10;5.93;;;;;;;41.36;25.32;101252.03;5029815;28;20021;-84
2021/07/22 08:35:05;;;;;;;11.57;6.28;;;;;;;41.39;25.67;101248.72;5029440;28;20117;-84
2021/07/22 08:37:31;;;;;;;9.70;5.35;;;;;;;41.76;24.99;101251.91;5029276;28;20423;-84
2021/07/22 08:40:01;;;;;;;9.85;6.00;;;;;;;41.94;25.86;101244.78;5029582;28;20025;-84
2021/07/22 08:42:27;;;;;;;10.70;6.60;;;;;;;42.14;24.90;101254.75;5029509;28;20022;-83
2021/07/22 08:44:54;;;;;;;8.15;5.75;;;;;;;42.07;23.95;101249.63;5029323;28;20028;-84
2021/07/22 08:47:20;;;;;;;14.02;5.95;;;;;;;42.12;24.95;101252.28;5029442;28;20105;-84
2021/07/22 08:49:45;;;;;;;16.05;5.57;;;;;;;42.69;25.45;101248.72;5026227;28;20100;-84
2021/07/22 08:52:11;;;;;;;9.50;6.10;;;;;;;42.48;23.97;101242.69;5029402;28;20028;-84
2021/07/22 08:54:39;;;;;;;9.45;5.82;;;;;;;42.97;23.34;101249.66;5028055;28;20424;-84
2021/07/22 08:57:10;;;;;;;9.13;5.72;;;;;;;43.27;23.32;101247.47;5029401;28;20052;-84
2021/07/22 08:59:35;;;;;;;12.23;6.97;;;;;;;43.35;23.30;101244.84;5029419;28;20443;-83
2021/07/22 09:02:03;;;;;;;10.50;5.85;;;;;;;43.08;23.55;101250.31;5029143;28;20120;-84
2021/07/22 09:04:28;;;;;;;10.50;5.80;;;;;;;43.28;24.31;101249.97;5021065;28;20018;-84
2021/07/22 09:06:55;;;;;;;7.85;6.60;;;;;;;43.16;23.68;101246.84;5010738;28;20014;-84
2021/07/22 09:09:20;;;;;;;12.65;6.65;;;;;;;43.45;23.02;101245.75;5010998;28;20026;-84
2021/07/22 09:11:57;;;;;;;16.73;6.15;;;;;;;43.97;23.15;101249.97;5010815;28;20014;-84
2021/07/22 09:14:24;;;;;;;11.45;6.70;;;;;;;43.88;22.07;101242.72;5026583;28;20021;-85
2021/07/22 09:16:49;;;;;;;15.27;5.65;;;;;;;44.00;23.91;101243.03;5029380;28;20096;-84
2021/07/22 09:19:38;;;;;;;14.88;7.65;;;;;;;44.18;22.19;101241.25;5028611;28;20475;-84
2021/07/22 09:22:08;;;;;;;11.90;6.43;;;;;;;43.99;22.24;101246.91;5032798;28;20079;-84
2021/07/22 09:24:51;;;;;;;9.10;5.80;;;;;;;43.93;22.05;101248.16;5032594;28;20026;-84
2021/07/22 09:27:42;;;;;;;11.90;6.78;;;;;;;43.02;23.14;101246.00;5032793;28;20030;-84
2021/07/22 09:30:20;;;;;;;11.65;6.75;;;;;;;43.21;22.53;101251.44;5028101;28;20034;-84
2021/07/22 09:32:48;;;;;;;10.70;6.22;;;;;;;43.06;23.82;101247.84;5021904;28;20112;-83
2021/07/22 09:35:17;;;;;;;13.05;6.05;;;;;;;43.42;23.06;101247.22;5032683;28;20029;-84
2021/07/22 09:37:54;;;;;;;11.00;6.05;;;;;;;43.27;22.53;101242.81;5032751;28;20018;-84
2021/07/22 09:40:25;;;;;;;9.63;5.82;;;;;;;44.00;22.08;101248.56;5032387;28;20022;-84
2021/07/22 09:42:54;;;;;;;12.90;5.70;;;;;;;43.90;22.66;101243.22;5030385;28;20028;-84
2021/07/22 09:45:25;;;;;;;10.48;5.43;;;;;;;44.09;23.30;101238.41;5029892;28;20022;-84
2021/07/22 09:47:52;;;;;;;12.38;5.63;;;;;;;44.42;22.21;101237.41;5017937;28;20100;-84
2021/07/22 09:50:22;;;;;;;9.68;5.90;;;;;;;43.49;21.96;101239.34;5029632;28;20027;-85
2021/07/22 09:52:59;;;;;;;10.38;5.78;;;;;;;43.75;22.03;101236.06;5032275;28;20029;-83
2021/07/22 09:55:31;;;;;;;11.43;5.70;;;;;;;43.48;22.28;101243.22;5020186;28;20047;-83
2021/07/22 09:57:59;;;;;;;11.20;5.60;;;;;;;43.49;22.63;101233.00;5029797;28;20064;-83
2021/07/22 10:00:26;;;;;;;11.07;5.40;;;;;;;43.50;22.62;101235.44;5030553;28;20092;-83
2021/07/22 10:02:53;;;;;;;11.68;5.85;;;;;;;43.52;22.76;101232.38;5018070;28;20026;-83
2021/07/22 10:05:23;;;;;;;10.32;6.13;;;;;;;43.56;22.96;101236.97;5029832;28;20045;-84
2021/07/22 10:07:51;;;;;;;7.05;5.45;;;;;;;43.64;22.75;101235.44;5032349;28;20032;-84
2021/07/22 10:10:17;;;;;;;10.43;5.18;;;;;;;43.72;22.59;101233.91;5028857;28;20030;-84
2021/07/22 10:12:50;;;;;;;6.47;4.70;;;;;;;44.04;22.44;101235.72;5028858;28;20025;-84
2021/07/22 10:15:17;;;;;;;7.60;4.97;;;;;;;43.82;23.45;101230.94;5032623;28;20030;-84
2021/07/22 10:17:45;;;;;;;10.65;5.07;;;;;;;44.64;21.26;101228.28;5033038;28;20033;-84
2021/07/22 10:20:11;;;;;;;7.93;5.30;;;;;;;44.55;21.93;101217.13;5032862;28;20491;-84
2021/07/22 10:22:37;;;;;;;9.32;5.20;;;;;;;44.69;21.42;101223.44;5027325;28;20044;-83
2021/07/22 10:25:03;;;;;;;7.03;4.78;;;;;;;44.27;22.21;101224.72;5032220;28;20034;-84
2021/07/22 10:27:29;;;;;;;9.13;5.28;;;;;;;45.05;21.03;101216.19;5033902;28;20036;-84
2021/07/22 10:29:54;;;;;;;14.15;5.30;;;;;;;44.42;21.30;101220.78;5033844;28;20022;-84
2021/07/22 10:32:23;;;;;;;8.40;4.22;;;;;;;45.14;20.95;101212.28;5032717;28;20026;-84
2021/07/22 10:34:51;;;;;;;7.72;4.78;;;;;;;45.14;20.73;101215.06;5033759;28;20025;-85
2021/07/22 10:37:18;;;;;;;12.27;4.63;;;;;;;44.94;21.28;101216.44;5033291;28;20037;-84
2021/07/22 10:40:10;;;;;;;5.78;4.03;;;;;;;45.21;20.78;101220.16;5033483;28;20021;-85
2021/07/22 10:42:55;;;;;;;11.40;5.25;;;;;;;45.24;20.35;101221.47;5033523;28;20109;-85
2021/07/22 10:45:21;;;;;;;9.30;4.45;;;;;;;44.54;21.15;101218.28;5033111;28;20047;-84
2021/07/22 10:48:06;;;;;;;10.43;4.68;;;;;;;44.52;21.18;101213.06;5033387;28;20033;-84
2021/07/22 10:50:38;;;;;;;9.63;4.80;;;;;;;45.28;20.30;101209.44;5033306;28;20036;-84
2021/07/22 10:53:04;;;;;;;11.05;4.32;;;;;;;44.68;21.08;101213.50;5032779;28;20120;-84
2021/07/22 10:55:42;;;;;;;10.00;4.53;;;;;;;44.51;20.58;101221.69;5033173;28;20488;-84
2021/07/22 10:58:22;;;;;;;13.05;4.40;;;;;;;44.37;21.63;101218.13;5033353;28;20040;-84
2021/07/22 11:00:47;;;;;;;12.18;4.32;;;;;;;44.38;21.23;101208.66;5033093;28;20029;-84
2021/07/22 11:03:36;;;;;;;9.88;4.80;;;;;;;44.36;20.89;101214.53;5032935;28;20029;-84
2021/07/22 11:06:11;;;;;;;7.97;4.07;;;;;;;44.33;21.79;101212.38;5032729;28;20029;-84
2021/07/22 11:08:38;;;;;;;9.15;4.53;;;;;;;44.42;21.52;101204.16;5022903;28;20028;-84
2021/07/22 11:11:07;;;;;;;13.57;4.95;;;;;;;43.25;22.47;101217.38;5032914;28;20484;-84
2021/07/22 11:14:08;;;;;;;7.75;4.45;;;;;;;42.82;22.90;101203.78;5032845;28;20032;-84
2021/07/22 11:16:29;;;;;;;7.95;4.70;;;;;;;42.47;23.10;101203.25;5031575;28;20034;-84